Time;durP1;ratioP1;P1;durP2;ratioP2;P2;SDS_P1;SDS_P2;PMS_P1;PMS_P2;Temp;Humidity;BMP_temperature;BMP_pressure;BME280_temperature;BME280_humidity;BME280_pressure;Samples;Min_cycle;Max_cycle;Signal;HPM_P1;HPM_P2
2023/05/21 00:03:44;;;;;;;24.23;18.08;;;16.70;99.90;;;;;;9478040;23;20577;-89
2023/05/21 00:07:32;;;;;;;23.40;16.88;;;16.70;99.90;;;;;;9477529;23;20306;-89
2023/05/21 00:11:18;;;;;;;22.02;16.98;;;16.60;99.90;;;;;;9476740;23;20180;-89
2023/05/21 00:15:04;;;;;;;23.13;17.15;;;16.60;99.90;;;;;;9477462;23;20180;-88
2023/05/21 00:18:53;;;;;;;22.05;16.40;;;16.50;99.90;;;;;;9477279;23;20160;-88
2023/05/21 00:22:41;;;;;;;24.73;17.90;;;16.40;99.90;;;;;;9477185;23;20188;-88
2023/05/21 00:26:26;;;;;;;21.42;16.23;;;16.40;99.90;;;;;;9476769;23;20192;-89
2023/05/21 00:30:12;;;;;;;23.45;16.80;;;16.40;99.90;;;;;;9477035;23;20164;-88
2023/05/21 00:33:57;;;;;;;22.63;16.45;;;16.30;99.90;;;;;;9502961;23;20172;-88
2023/05/21 00:37:43;;;;;;;22.35;16.48;;;16.30;99.90;;;;;;9476824;23;20160;-88
2023/05/21 00:41:29;;;;;;;22.15;16.80;;;16.30;99.90;;;;;;9476461;23;20184;-88
2023/05/21 00:45:14;;;;;;;23.17;17.05;;;16.30;99.90;;;;;;9476432;23;20176;-88
2023/05/21 00:49:00;;;;;;;22.85;16.88;;;16.30;99.90;;;;;;9478186;23;20156;-89
2023/05/21 00:52:47;;;;;;;22.95;16.35;;;16.30;99.90;;;;;;9480949;23;20191;-89
2023/05/21 00:56:33;;;;;;;23.90;16.35;;;16.20;99.90;;;;;;9476376;23;20184;-88
2023/05/21 01:00:19;;;;;;;19.52;15.57;;;16.20;99.90;;;;;;9478299;23;20194;-88
2023/05/21 01:04:05;;;;;;;23.48;16.98;;;16.20;99.90;;;;;;9504960;23;20172;-89
2023/05/21 01:07:51;;;;;;;21.30;16.52;;;16.20;99.90;;;;;;9478475;23;20164;-88
2023/05/21 01:11:45;;;;;;;22.65;15.85;;;16.10;99.90;;;;;;9478344;23;20180;-87
2023/05/21 01:15:31;;;;;;;22.85;16.40;;;16.10;99.90;;;;;;9477606;23;20804;-87
2023/05/21 01:19:19;;;;;;;22.75;16.60;;;16.10;99.90;;;;;;9477829;23;20608;-88
2023/05/21 01:23:05;;;;;;;21.98;15.93;;;16.00;99.90;;;;;;9477484;23;20535;-89
2023/05/21 01:26:51;;;;;;;21.90;15.30;;;16.00;99.90;;;;;;9476134;23;20171;-89
2023/05/21 01:30:40;;;;;;;22.50;15.38;;;16.00;99.90;;;;;;9477887;23;20160;-88
2023/05/21 01:34:37;;;;;;;22.13;15.65;;;16.00;99.90;;;;;;9477830;23;20185;-88
2023/05/21 01:38:46;;;;;;;21.15;14.77;;;15.90;99.90;;;;;;9477628;23;20179;-88
2023/05/21 01:42:34;;;;;;;20.85;15.65;;;15.90;99.90;;;;;;9478122;23;20176;-88
2023/05/21 01:46:25;;;;;;;19.45;15.38;;;15.90;99.90;;;;;;9478099;23;20259;-88
2023/05/21 01:50:11;;;;;;;22.23;15.77;;;15.90;99.90;;;;;;9480237;23;20538;-88
2023/05/21 01:53:56;;;;;;;20.77;16.02;;;15.90;99.90;;;;;;9477478;23;20655;-88
2023/05/21 01:57:42;;;;;;;19.88;15.57;;;15.90;99.90;;;;;;9476887;23;20559;-88
2023/05/21 02:01:30;;;;;;;20.77;15.95;;;15.90;99.90;;;;;;9504376;23;20180;-88
2023/05/21 02:05:16;;;;;;;20.70;15.82;;;15.90;99.90;;;;;;9477420;23;20203;-88
2023/05/21 02:09:02;;;;;;;21.17;15.45;;;15.80;99.90;;;;;;9502792;23;20600;-88
2023/05/21 02:12:48;;;;;;;22.83;15.35;;;15.80;99.90;;;;;;9477510;23;20518;-88
2023/05/21 02:16:33;;;;;;;21.60;15.95;;;15.80;99.90;;;;;;9476835;23;20190;-87
2023/05/21 02:20:21;;;;;;;24.40;16.63;;;15.80;99.90;;;;;;9476924;23;20191;-88
2023/05/21 02:24:07;;;;;;;21.98;16.85;;;15.70;99.90;;;;;;9476934;23;20667;-88
2023/05/21 02:27:52;;;;;;;22.13;16.10;;;15.70;99.90;;;;;;9502468;23;20199;-87
2023/05/21 02:31:38;;;;;;;23.90;16.73;;;15.70;99.90;;;;;;9477176;23;20164;-88
2023/05/21 02:35:24;;;;;;;22.98;16.85;;;15.60;99.90;;;;;;9503218;23;20180;-88
2023/05/21 02:39:09;;;;;;;24.58;16.60;;;15.60;99.90;;;;;;9476697;23;20358;-88
2023/05/21 02:42:55;;;;;;;24.38;17.23;;;15.60;99.90;;;;;;9477267;23;20636;-88
2023/05/21 02:46:40;;;;;;;25.05;16.85;;;15.60;99.90;;;;;;9502953;23;20168;-89
2023/05/21 02:50:26;;;;;;;24.30;17.73;;;15.50;99.90;;;;;;9476696;23;20250;-88
2023/05/21 02:54:12;;;;;;;24.17;17.17;;;15.50;99.90;;;;;;9477031;23;20184;-88
2023/05/21 02:57:57;;;;;;;27.48;18.05;;;15.50;99.90;;;;;;9476444;23;20199;-88
2023/05/21 03:01:43;;;;;;;24.55;17.58;;;15.40;99.90;;;;;;9502252;23;20180;-88
2023/05/21 03:05:29;;;;;;;26.20;17.92;;;15.40;99.90;;;;;;9476551;23;20647;-88
2023/05/21 03:09:15;;;;;;;29.92;19.50;;;15.40;99.90;;;;;;9502404;23;20516;-88
2023/05/21 03:13:03;;;;;;;24.17;18.67;;;15.30;99.90;;;;;;9476435;23;20203;-88
2023/05/21 03:16:50;;;;;;;25.35;18.42;;;15.30;99.90;;;;;;9476641;23;20338;-89
2023/05/21 03:20:42;;;;;;;25.70;17.75;;;15.30;99.90;;;;;;9477126;23;20283;-89
2023/05/21 03:24:29;;;;;;;23.45;17.02;;;15.20;99.90;;;;;;9481190;23;20203;-89
2023/05/21 03:28:16;;;;;;;21.90;16.30;;;15.20;99.90;;;;;;9502581;23;20206;-89
2023/05/21 03:32:02;;;;;;;25.33;18.20;;;15.20;99.90;;;;;;9476413;23;20600;-88
2023/05/21 03:35:48;;;;;;;23.75;16.95;;;15.20;99.90;;;;;;9476210;23;20555;-88
2023/05/21 03:39:33;;;;;;;23.63;16.83;;;15.20;99.90;;;;;;9502196;23;20152;-88
2023/05/21 03:43:19;;;;;;;23.35;16.45;;;15.20;99.90;;;;;;9501796;23;20176;-88
2023/05/21 03:47:04;;;;;;;21.13;15.13;;;15.10;99.90;;;;;;9476059;23;20156;-89
2023/05/21 03:50:50;;;;;;;22.13;15.95;;;15.20;99.90;;;;;;9476440;23;20535;-89
2023/05/21 03:54:36;;;;;;;25.50;17.15;;;15.10;99.90;;;;;;9501262;23;20184;-88
2023/05/21 03:58:22;;;;;;;25.88;16.92;;;15.10;99.90;;;;;;9474825;23;20168;-89
2023/05/21 04:02:07;;;;;;;24.08;16.90;;;15.10;99.90;;;;;;9474961;23;20276;-89
2023/05/21 04:05:53;;;;;;;24.70;17.65;;;15.10;99.90;;;;;;9474111;23;20180;-89
2023/05/21 04:09:40;;;;;;;23.23;15.80;;;15.10;99.90;;;;;;9474481;23;20161;-89
2023/05/21 04:13:27;;;;;;;20.95;15.13;;;15.10;99.90;;;;;;9474318;23;20679;-89
2023/05/21 04:17:12;;;;;;;22.45;16.17;;;15.10;99.90;;;;;;9473535;23;20164;-90
2023/05/21 04:20:59;;;;;;;19.75;15.35;;;15.10;99.90;;;;;;9500888;23;20203;-89
2023/05/21 04:24:45;;;;;;;21.77;16.42;;;15.10;99.90;;;;;;9502683;23;20246;-88
2023/05/21 04:28:32;;;;;;;22.65;16.55;;;15.10;99.90;;;;;;9503200;23;20148;-89
2023/05/21 04:32:17;;;;;;;21.27;16.80;;;15.10;99.90;;;;;;9477607;23;20167;-88
2023/05/21 04:36:03;;;;;;;23.90;16.02;;;15.10;99.90;;;;;;9476714;23;20184;-90
2023/05/21 04:39:49;;;;;;;22.77;16.10;;;15.10;99.90;;;;;;9476695;23;20164;-89
2023/05/21 04:43:35;;;;;;;23.33;17.00;;;15.10;99.90;;;;;;9477437;23;20251;-88
2023/05/21 04:47:21;;;;;;;23.45;16.42;;;15.10;99.90;;;;;;9502570;23;20219;-89
2023/05/21 04:51:07;;;;;;;25.15;16.88;;;15.10;99.90;;;;;;9477944;23;20187;-89
2023/05/21 04:54:53;;;;;;;23.83;18.00;;;15.10;99.90;;;;;;9504285;23;20280;-89
2023/05/21 04:58:46;;;;;;;26.08;16.90;;;15.10;99.90;;;;;;9477377;23;20243;-89
2023/05/21 05:02:32;;;;;;;25.30;18.52;;;15.10;99.90;;;;;;9504171;23;20195;-89
2023/05/21 05:06:17;;;;;;;28.58;20.00;;;15.20;99.90;;;;;;9479184;23;20180;-85
2023/05/21 05:10:04;;;;;;;30.02;20.60;;;15.10;99.90;;;;;;9479287;23;20161;-85
2023/05/21 05:13:49;;;;;;;28.85;20.83;;;15.20;99.90;;;;;;9478440;23;20191;-88
2023/05/21 05:17:35;;;;;;;29.27;21.30;;;15.30;99.90;;;;;;9501759;23;20148;-89
2023/05/21 05:21:22;;;;;;;30.23;21.90;;;15.40;99.90;;;;;;9475695;23;20523;-89
2023/05/21 05:25:08;;;;;;;30.27;20.60;;;15.50;99.90;;;;;;9476256;23;20251;-89
2023/05/21 05:28:54;;;;;;;33.45;22.30;;;15.60;99.90;;;;;;9475754;23;20156;-88
2023/05/21 05:32:39;;;;;;;31.83;20.95;;;15.70;99.90;;;;;;9501647;23;20152;-89
2023/05/21 05:36:26;;;;;;;32.95;21.85;;;15.80;99.90;;;;;;9501917;23;20227;-89
2023/05/21 05:40:11;;;;;;;27.40;20.30;;;15.90;99.90;;;;;;9476142;23;20195;-89
2023/05/21 05:43:57;;;;;;;26.67;20.58;;;16.10;99.90;;;;;;9476603;23;20176;-88
2023/05/21 05:47:42;;;;;;;26.88;19.65;;;16.20;99.90;;;;;;9475697;23;20214;-89
2023/05/21 05:51:29;;;;;;;30.83;21.15;;;16.30;99.90;;;;;;9501807;23;20179;-88
2023/05/21 05:55:14;;;;;;;26.85;19.48;;;16.40;99.90;;;;;;9477914;23;20184;-89
2023/05/21 05:59:00;;;;;;;27.60;20.20;;;16.50;99.90;;;;;;9482124;23;20291;-89
2023/05/21 06:02:46;;;;;;;27.50;18.92;;;16.60;99.90;;;;;;9473768;23;20184;-89
2023/05/21 06:06:33;;;;;;;30.98;19.45;;;16.80;99.90;;;;;;9475412;23;20188;-89
2023/05/21 06:10:19;;;;;;;26.08;19.40;;;17.00;99.90;;;;;;9476601;23;20163;-89
2023/05/21 06:14:05;;;;;;;27.13;19.27;;;17.10;99.90;;;;;;9476473;23;20176;-89
2023/05/21 06:17:50;;;;;;;27.02;19.30;;;17.20;99.90;;;;;;9479076;23;20152;-89
2023/05/21 06:21:36;;;;;;;24.77;18.13;;;17.40;99.90;;;;;;9474920;23;20188;-89
2023/05/21 06:25:21;;;;;;;25.75;18.92;;;17.50;99.90;;;;;;9501584;23;20175;-89
2023/05/21 06:29:07;;;;;;;25.55;18.75;;;17.70;99.90;;;;;;9475338;23;20156;-89
2023/05/21 06:32:53;;;;;;;24.48;17.88;;;17.80;99.90;;;;;;9475018;23;20172;-90
2023/05/21 06:36:39;;;;;;;22.13;16.15;;;18.00;99.90;;;;;;9477118;23;20775;-89
2023/05/21 06:40:25;;;;;;;21.23;15.43;;;18.50;99.90;;;;;;9502152;23;20195;-88
2023/05/21 06:44:11;;;;;;;22.20;15.90;;;19.00;99.90;;;;;;9501952;23;20249;-89
2023/05/21 06:47:56;;;;;;;22.23;14.68;;;19.50;99.90;;;;;;9476322;23;20164;-88
2023/05/21 06:51:42;;;;;;;26.63;16.85;;;19.90;99.90;;;;;;9476258;23;20168;-88
2023/05/21 06:55:28;;;;;;;19.52;14.63;;;20.20;99.90;;;;;;9475509;23;20187;-88
2023/05/21 06:59:14;;;;;;;21.00;15.07;;;20.40;99.90;;;;;;9476409;23;20183;-89
2023/05/21 07:02:59;;;;;;;20.25;15.70;;;20.60;99.90;;;;;;9476421;23;20222;-88
2023/05/21 07:06:45;;;;;;;19.80;15.13;;;20.70;99.90;;;;;;9475831;23;20615;-88
2023/05/21 07:10:31;;;;;;;19.52;15.15;;;20.80;99.90;;;;;;9476691;23;20605;-88
2023/05/21 07:14:16;;;;;;;19.33;15.07;;;20.80;99.90;;;;;;9502462;23;20176;-88
2023/05/21 07:18:03;;;;;;;20.83;16.17;;;20.80;99.90;;;;;;9476568;23;20164;-89
2023/05/21 07:21:49;;;;;;;18.33;14.20;;;20.80;99.90;;;;;;9476619;23;20243;-89
2023/05/21 07:25:39;;;;;;;20.55;15.15;;;20.80;99.90;;;;;;9477644;23;20180;-89
2023/05/21 07:29:24;;;;;;;20.38;15.00;;;20.80;99.90;;;;;;9477136;23;20148;-91
2023/05/21 07:33:11;;;;;;;18.83;14.98;;;20.80;99.90;;;;;;9505053;23;20163;-89
2023/05/21 07:36:57;;;;;;;19.52;15.40;;;20.80;99.90;;;;;;9474521;23;20190;-89
2023/05/21 07:40:42;;;;;;;20.05;15.48;;;20.80;99.90;;;;;;9473777;23;20184;-89
2023/05/21 07:44:28;;;;;;;21.88;14.82;;;20.90;99.90;;;;;;9474861;23;20531;-90
2023/05/21 07:48:14;;;;;;;20.00;14.77;;;20.80;99.90;;;;;;9474564;23;20157;-89
2023/05/21 07:51:59;;;;;;;20.33;15.38;;;20.90;99.90;;;;;;9475189;23;20199;-89
2023/05/21 07:55:49;;;;;;;21.35;15.38;;;20.80;99.90;;;;;;9477113;23;20183;-89
2023/05/21 07:59:34;;;;;;;20.23;15.48;;;20.70;99.90;;;;;;9476847;23;20156;-89
2023/05/21 08:03:20;;;;;;;21.48;14.82;;;20.70;99.90;;;;;;9477256;23;20191;-89
2023/05/21 08:07:05;;;;;;;18.33;14.75;;;20.70;99.90;;;;;;9477881;23;20203;-90
2023/05/21 08:10:51;;;;;;;21.27;15.55;;;20.70;99.90;;;;;;9476183;23;20515;-90
2023/05/21 08:14:37;;;;;;;19.85;14.63;;;20.80;99.90;;;;;;9503330;23;20175;-89
2023/05/21 08:18:22;;;;;;;17.73;14.68;;;20.80;99.90;;;;;;9477676;23;20168;-91
2023/05/21 08:22:08;;;;;;;21.40;15.63;;;20.80;99.90;;;;;;9476475;23;20186;-90
2023/05/21 08:25:54;;;;;;;23.05;15.60;;;20.90;99.90;;;;;;9477213;23;20180;-90
2023/05/21 08:29:41;;;;;;;21.45;16.05;;;20.90;99.90;;;;;;9490838;23;20144;-89
2023/05/21 08:33:27;;;;;;;19.77;15.85;;;21.00;99.90;;;;;;9477795;23;20485;-88
2023/05/21 08:37:12;;;;;;;20.17;15.70;;;21.10;99.90;;;;;;9476985;23;20160;-88
2023/05/21 08:40:59;;;;;;;23.98;15.68;;;21.20;99.90;;;;;;9478139;23;20242;-88
2023/05/21 08:44:50;;;;;;;18.73;15.95;;;21.30;99.90;;;;;;9477788;23;20176;-85
2023/05/21 08:48:37;;;;;;;19.58;15.88;;;21.50;99.90;;;;;;9477329;23;20172;-85
2023/05/21 08:52:25;;;;;;;21.30;16.02;;;21.60;99.90;;;;;;9503329;23;20239;-84
2023/05/21 08:56:11;;;;;;;19.60;14.98;;;21.60;99.90;;;;;;9478001;23;20632;-85
2023/05/21 08:59:58;;;;;;;16.92;13.82;;;21.70;99.90;;;;;;9504078;23;20215;-85
2023/05/21 09:03:45;;;;;;;16.83;14.43;;;21.80;99.90;;;;;;9478529;23;20258;-86
2023/05/21 09:07:41;;;;;;;21.00;15.40;;;21.80;99.90;;;;;;9505729;23;20140;-86
2023/05/21 09:11:28;;;;;;;17.50;14.75;;;21.90;99.90;;;;;;9479802;23;20171;-87
2023/05/21 09:15:13;;;;;;;19.90;14.13;;;21.90;99.90;;;;;;9476991;23;20524;-85
2023/05/21 09:18:59;;;;;;;16.08;13.73;;;21.90;99.90;;;;;;9477923;23;20187;-89
2023/05/21 09:22:47;;;;;;;19.65;14.07;;;21.90;99.90;;;;;;9503878;23;20176;-89
2023/05/21 09:26:33;;;;;;;17.10;13.38;;;22.00;99.90;;;;;;9477564;23;20400;-89
2023/05/21 09:30:18;;;;;;;19.05;13.48;;;22.10;99.90;;;;;;9478272;23;20167;-89
2023/05/21 09:34:04;;;;;;;40.13;14.23;;;22.10;99.90;;;;;;9477743;23;20182;-88
2023/05/21 09:37:51;;;;;;;17.40;13.13;;;22.20;99.90;;;;;;9477616;23;20167;-89
2023/05/21 09:41:37;;;;;;;18.35;12.90;;;22.30;99.90;;;;;;9477709;23;20222;-89
2023/05/21 09:45:25;;;;;;;21.63;13.05;;;22.40;99.90;;;;;;9477739;23;20629;-89
2023/05/21 09:49:30;;;;;;;23.85;14.15;;;22.50;99.90;;;;;;9477534;23;20156;-88
2023/05/21 09:53:15;;;;;;;23.05;15.93;;;22.60;99.90;;;;;;9478172;23;20229;-89
2023/05/21 09:57:03;;;;;;;20.80;17.92;;;22.60;99.90;;;;;;9476556;23;20271;-89
2023/05/21 10:00:49;;;;;;;23.73;19.25;;;22.70;99.90;;;;;;9477738;23;20180;-89
2023/05/21 10:04:35;;;;;;;30.08;19.67;;;22.70;99.90;;;;;;9477966;23;20239;-90
2023/05/21 10:08:23;;;;;;;25.17;19.65;;;22.80;99.90;;;;;;9477261;23;20156;-89
2023/05/21 10:12:09;;;;;;;24.75;18.95;;;22.80;99.90;;;;;;9477999;23;20612;-90
2023/05/21 10:16:01;;;;;;;24.25;19.60;;;22.80;99.90;;;;;;9477940;23;20184;-89
2023/05/21 10:19:47;;;;;;;27.10;17.52;;;22.80;99.90;;;;;;9476610;23;20573;-90
2023/05/21 10:23:36;;;;;;;25.67;22.52;;;22.90;99.90;;;;;;9477728;23;20188;-90
2023/05/21 10:27:28;;;;;;;19.52;15.38;;;22.80;99.90;;;;;;9478124;23;20178;-89
2023/05/21 10:31:15;;;;;;;18.02;14.07;;;22.70;99.90;;;;;;9476593;23;20156;-89
2023/05/21 10:35:01;;;;;;;18.10;14.15;;;22.60;99.90;;;;;;9477357;23;20176;-89
2023/05/21 10:38:50;;;;;;;16.73;12.82;;;22.50;99.90;;;;;;9477392;23;20160;-89
2023/05/21 10:43:05;;;;;;;19.75;12.63;;;22.50;99.90;;;;;;9478805;23;20176;-89
2023/05/21 10:47:20;;;;;;;19.30;11.35;;;22.50;99.90;;;;;;9502308;23;20243;-91
2023/05/21 10:51:34;;;;;;;12.82;11.02;;;22.50;99.90;;;;;;9252274;24;20164;-89
2023/05/21 10:55:48;;;;;;;14.65;9.65;;;22.60;99.90;;;;;;9251971;24;20640;-88
2023/05/21 10:59:44;;;;;;;15.60;9.98;;;22.80;99.90;;;;;;9276275;24;20148;-88
2023/05/21 11:03:32;;;;;;;11.23;9.68;;;22.90;99.90;;;;;;9262667;23;20273;-89
2023/05/21 11:07:23;;;;;;;13.02;10.10;;;23.00;99.90;;;;;;9274934;24;20152;-89
2023/05/21 11:11:08;;;;;;;12.93;9.20;;;23.10;99.90;;;;;;9252800;24;20167;-90
2023/05/21 11:14:56;;;;;;;10.82;9.50;;;23.20;99.90;;;;;;9271230;23;20254;-89
2023/05/21 11:18:41;;;;;;;12.93;10.57;;;23.30;99.80;;;;;;9272610;24;20211;-90
2023/05/21 11:22:27;;;;;;;12.30;9.90;;;23.50;99.00;;;;;;9274010;24;20247;-89
2023/05/21 11:26:24;;;;;;;12.00;10.00;;;23.60;96.80;;;;;;9289171;23;20184;-90
2023/05/21 11:30:19;;;;;;;13.20;11.20;;;23.60;95.60;;;;;;9473876;23;20534;-90
2023/05/21 11:34:27;;;;;;;14.32;10.98;;;23.70;96.30;;;;;;9476477;23;20281;-90
2023/05/21 11:38:13;;;;;;;15.45;11.15;;;23.70;95.70;;;;;;9503525;23;20585;-89
2023/05/21 11:42:01;;;;;;;16.42;12.23;;;23.70;96.70;;;;;;9501772;23;20234;-90
2023/05/21 11:45:47;;;;;;;16.42;13.55;;;23.70;97.20;;;;;;9478168;23;20206;-90
2023/05/21 11:49:33;;;;;;;18.20;13.52;;;23.80;98.80;;;;;;9474069;23;20550;-90
2023/05/21 11:53:19;;;;;;;18.10;13.82;;;23.90;99.60;;;;;;9476917;23;20171;-90
2023/05/21 11:57:08;;;;;;;18.83;14.80;;;24.00;99.60;;;;;;9501473;23;20152;-90
2023/05/21 12:00:54;;;;;;;16.73;14.02;;;24.00;99.50;;;;;;9477968;23;20183;-90
2023/05/21 12:04:41;;;;;;;20.08;14.88;;;24.10;99.20;;;;;;9504250;23;20175;-90
2023/05/21 12:08:27;;;;;;;17.13;14.20;;;24.10;99.40;;;;;;9477290;23;20302;-90
2023/05/21 12:12:18;;;;;;;20.35;15.27;;;24.10;99.40;;;;;;9476538;23;20175;-90
2023/05/21 12:16:04;;;;;;;24.45;15.18;;;24.10;99.90;;;;;;9477530;23;20473;-89
2023/05/21 12:19:53;;;;;;;21.77;15.32;;;24.30;99.90;;;;;;9477503;23;20227;-90
2023/05/21 12:23:38;;;;;;;17.30;14.20;;;24.50;99.80;;;;;;9501386;23;20245;-91
2023/05/21 12:27:27;;;;;;;18.55;14.20;;;24.50;98.50;;;;;;9477719;23;20175;-90
2023/05/21 12:31:15;;;;;;;21.88;14.52;;;24.40;97.40;;;;;;9503515;23;20156;-89
2023/05/21 12:35:01;;;;;;;17.48;15.25;;;24.40;97.40;;;;;;9475380;23;20190;-90
2023/05/21 12:38:47;;;;;;;16.85;14.80;;;24.30;97.70;;;;;;9476376;23;20160;-90
2023/05/21 12:42:36;;;;;;;17.98;14.30;;;24.40;99.40;;;;;;9475560;23;20211;-91
2023/05/21 12:46:22;;;;;;;17.88;14.60;;;24.50;99.20;;;;;;9476836;23;20180;-90
2023/05/21 12:50:11;;;;;;;19.15;14.90;;;24.50;97.90;;;;;;9502211;23;20152;-90
2023/05/21 12:53:56;;;;;;;17.17;14.50;;;24.60;97.90;;;;;;9477550;23;20179;-90
2023/05/21 12:57:42;;;;;;;18.52;15.02;;;24.50;97.70;;;;;;9502234;23;20136;-90
2023/05/21 13:01:29;;;;;;;18.73;14.38;;;24.40;96.40;;;;;;9477630;23;20656;-90
2023/05/21 13:05:16;;;;;;;18.55;15.60;;;24.50;97.90;;;;;;9475275;23;20186;-91
2023/05/21 13:09:02;;;;;;;18.30;14.73;;;24.60;98.90;;;;;;9475432;23;20243;-90
2023/05/21 13:12:48;;;;;;;18.20;14.48;;;24.80;98.30;;;;;;9476363;23;20176;-90
2023/05/21 13:16:33;;;;;;;18.63;14.57;;;25.00;97.90;;;;;;9476727;23;20204;-90
2023/05/21 13:20:20;;;;;;;17.30;14.90;;;25.20;98.00;;;;;;9476408;23;20564;-90
2023/05/21 13:24:06;;;;;;;19.92;14.82;;;25.30;97.50;;;;;;9477227;23;20194;-84
2023/05/21 13:27:52;;;;;;;18.02;13.25;;;25.30;95.50;;;;;;9504486;23;20514;-89
2023/05/21 13:31:37;;;;;;;14.77;11.82;;;25.30;95.40;;;;;;9480540;23;20144;-83
2023/05/21 13:35:23;;;;;;;11.00;9.80;;;25.20;95.20;;;;;;9489405;23;20188;-86
2023/05/21 13:39:09;;;;;;;9.55;8.38;;;25.20;92.70;;;;;;9479929;23;20184;-88
2023/05/21 13:42:55;;;;;;;10.95;8.93;;;25.20;91.30;;;;;;9477914;23;20180;-90
2023/05/21 13:46:40;;;;;;;10.27;9.00;;;25.20;90.10;;;;;;9477845;23;20176;-88
2023/05/21 13:50:26;;;;;;;11.38;8.57;;;25.10;91.20;;;;;;9503524;23;20149;-89
2023/05/21 13:54:12;;;;;;;11.45;9.40;;;25.00;91.20;;;;;;9477116;23;20183;-89
2023/05/21 13:57:58;;;;;;;11.50;9.85;;;24.90;91.80;;;;;;9475993;23;20236;-89
2023/05/21 14:01:44;;;;;;;14.52;11.00;;;24.90;91.70;;;;;;9504015;23;20620;-90
2023/05/21 14:05:30;;;;;;;13.73;10.90;;;25.00;92.20;;;;;;9503315;23;20176;-89
2023/05/21 14:09:15;;;;;;;16.13;11.35;;;25.10;92.10;;;;;;9502271;23;20155;-90
2023/05/21 14:13:02;;;;;;;16.08;11.75;;;25.20;91.70;;;;;;9477454;23;20250;-90
2023/05/21 14:16:48;;;;;;;13.40;10.73;;;25.30;91.50;;;;;;9475853;23;20184;-89
2023/05/21 14:20:35;;;;;;;15.45;10.57;;;25.30;90.10;;;;;;9475519;23;20267;-90
2023/05/21 14:24:20;;;;;;;12.05;10.10;;;25.40;88.00;;;;;;9476600;23;20175;-90
2023/05/21 14:28:06;;;;;;;12.35;9.35;;;25.50;88.00;;;;;;9503215;23;20471;-90
2023/05/21 14:31:52;;;;;;;9.82;8.18;;;25.50;86.80;;;;;;9477947;23;20164;-89
2023/05/21 14:35:38;;;;;;;10.02;8.00;;;25.50;85.10;;;;;;9501814;23;20222;-89
2023/05/21 14:39:23;;;;;;;12.43;7.40;;;25.40;83.90;;;;;;9475822;23;20172;-89
2023/05/21 14:43:09;;;;;;;10.02;7.15;;;25.40;81.60;;;;;;9477377;23;20184;-89
2023/05/21 14:46:54;;;;;;;9.93;7.53;;;25.50;80.90;;;;;;9476801;23;20180;-89
2023/05/21 14:50:40;;;;;;;8.05;7.22;;;25.50;80.80;;;;;;9477150;23;20167;-90
2023/05/21 14:54:26;;;;;;;9.23;7.72;;;25.50;81.60;;;;;;9477520;23;20175;-90
2023/05/21 14:58:11;;;;;;;9.48;8.20;;;25.50;82.60;;;;;;9478292;23;20160;-89
2023/05/21 15:01:57;;;;;;;11.73;9.18;;;25.50;83.40;;;;;;9479476;23;20191;-89
2023/05/21 15:05:43;;;;;;;11.73;8.70;;;25.40;84.00;;;;;;9479837;23;20187;-89
2023/05/21 15:09:28;;;;;;;11.30;8.85;;;25.30;85.70;;;;;;9502888;23;20151;-89
2023/05/21 15:13:14;;;;;;;13.15;9.43;;;25.20;86.80;;;;;;9475781;23;20179;-89
2023/05/21 15:16:59;;;;;;;12.48;8.57;;;25.20;87.30;;;;;;9476957;23;20469;-88
2023/05/21 15:20:45;;;;;;;24.45;8.25;;;25.20;86.20;;;;;;9475580;23;20187;-89
2023/05/21 15:24:31;;;;;;;10.55;7.25;;;25.20;86.80;;;;;;9477037;23;20493;-89
2023/05/21 15:28:16;;;;;;;10.48;7.72;;;25.20;86.20;;;;;;9476547;23;20465;-90
2023/05/21 15:32:04;;;;;;;9.18;7.32;;;25.20;87.00;;;;;;9476144;23;20164;-86
2023/05/21 15:35:49;;;;;;;11.60;7.00;;;25.20;86.50;;;;;;9474472;23;20196;-89
2023/05/21 15:39:35;;;;;;;10.57;7.00;;;25.60;86.60;;;;;;9475941;23;20163;-90
2023/05/21 15:43:20;;;;;;;16.58;7.32;;;25.90;83.60;;;;;;9476597;23;20164;-89
2023/05/21 15:47:06;;;;;;;9.30;6.78;;;26.20;83.80;;;;;;9476735;23;20207;-90
2023/05/21 15:50:53;;;;;;;14.25;7.45;;;26.50;83.30;;;;;;9502379;23;20250;-90
2023/05/21 15:54:38;;;;;;;8.65;7.32;;;26.60;81.70;;;;;;9501793;23;20168;-89
2023/05/21 15:58:24;;;;;;;8.50;6.88;;;26.70;81.50;;;;;;9476241;23;20164;-89
2023/05/21 16:02:09;;;;;;;9.88;6.63;;;26.70;81.50;;;;;;9475771;23;20166;-90
2023/05/21 16:05:55;;;;;;;10.30;6.85;;;26.80;81.10;;;;;;9476071;23;20187;-89
2023/05/21 16:09:41;;;;;;;7.15;6.45;;;26.80;80.60;;;;;;9489056;23;20592;-90
2023/05/21 16:13:26;;;;;;;9.48;6.80;;;26.80;80.30;;;;;;9476439;23;20671;-88
2023/05/21 16:17:12;;;;;;;7.30;6.60;;;26.80;80.50;;;;;;9478294;23;20166;-90
2023/05/21 16:20:58;;;;;;;8.77;6.80;;;26.80;81.50;;;;;;9505170;23;20152;-91
2023/05/21 16:24:44;;;;;;;9.23;6.13;;;26.80;81.10;;;;;;9480004;23;20187;-90
2023/05/21 16:28:30;;;;;;;7.53;6.70;;;26.80;81.20;;;;;;9478752;23;20215;-89
2023/05/21 16:32:16;;;;;;;10.48;6.97;;;26.80;80.60;;;;;;9478348;23;20211;-89
2023/05/21 16:36:01;;;;;;;8.60;6.82;;;26.80;80.40;;;;;;9478661;23;20564;-89
2023/05/21 16:39:47;;;;;;;13.50;6.40;;;26.70;78.70;;;;;;9477665;23;20163;-89
2023/05/21 16:43:33;;;;;;;8.90;6.32;;;26.70;78.10;;;;;;9478448;23;20152;-89
2023/05/21 16:47:18;;;;;;;7.15;6.10;;;26.60;77.60;;;;;;9481494;23;20199;-88
2023/05/21 16:51:04;;;;;;;7.57;6.53;;;26.50;76.40;;;;;;9482588;23;20187;-89
2023/05/21 16:54:50;;;;;;;7.53;6.60;;;26.50;76.80;;;;;;9477210;23;20180;-89
2023/05/21 16:58:36;;;;;;;8.55;6.70;;;26.40;76.90;;;;;;9477777;23;20239;-88
2023/05/21 17:02:24;;;;;;;7.25;6.50;;;26.40;77.50;;;;;;9478746;23;20164;-89
2023/05/21 17:06:10;;;;;;;8.98;7.43;;;26.30;77.80;;;;;;9478328;23;20198;-89
2023/05/21 17:09:55;;;;;;;8.02;7.05;;;26.30;78.00;;;;;;9478155;23;20160;-88
2023/05/21 17:13:41;;;;;;;11.75;7.35;;;26.20;78.60;;;;;;9477328;23;20199;-89
2023/05/21 17:17:27;;;;;;;8.27;7.32;;;26.20;79.00;;;;;;9477202;23;20160;-88
2023/05/21 17:21:12;;;;;;;8.35;6.93;;;26.20;79.20;;;;;;9477752;23;20167;-88
2023/05/21 17:24:58;;;;;;;10.65;7.22;;;26.20;78.20;;;;;;9478283;23;20186;-89
2023/05/21 17:28:44;;;;;;;10.18;6.63;;;26.10;76.70;;;;;;9477214;23;20171;-88
2023/05/21 17:32:29;;;;;;;7.78;6.55;;;26.00;76.70;;;;;;9477374;23;20191;-88
2023/05/21 17:36:15;;;;;;;9.32;6.88;;;25.90;77.40;;;;;;9477361;23;20187;-89
2023/05/21 17:40:00;;;;;;;8.85;6.90;;;25.90;77.80;;;;;;9476782;23;20156;-89
2023/05/21 17:43:46;;;;;;;7.55;6.85;;;25.90;77.90;;;;;;9502732;23;20184;-88
2023/05/21 17:47:33;;;;;;;11.07;7.15;;;25.80;78.00;;;;;;9476746;23;20219;-89
2023/05/21 17:51:18;;;;;;;11.02;6.72;;;25.80;78.50;;;;;;9477475;23;20270;-88
2023/05/21 17:55:05;;;;;;;10.52;7.00;;;25.70;78.30;;;;;;9477932;23;20230;-88
2023/05/21 17:58:50;;;;;;;7.60;6.78;;;25.70;78.40;;;;;;9477335;23;20263;-89
2023/05/21 18:02:37;;;;;;;9.23;7.53;;;25.60;79.00;;;;;;9478217;23;20164;-88
2023/05/21 18:06:23;;;;;;;13.85;7.13;;;25.50;79.10;;;;;;9477039;23;20309;-88
2023/05/21 18:10:09;;;;;;;7.43;6.45;;;25.40;79.60;;;;;;9477254;23;20164;-88
2023/05/21 18:13:54;;;;;;;7.75;6.93;;;25.30;79.80;;;;;;9476777;23;20225;-88
2023/05/21 18:17:40;;;;;;;10.75;7.43;;;25.30;79.90;;;;;;9501729;23;20175;-89
2023/05/21 18:21:26;;;;;;;8.32;6.22;;;25.20;80.10;;;;;;9501804;23;20140;-88
2023/05/21 18:25:11;;;;;;;7.07;6.38;;;25.20;80.50;;;;;;9477229;23;20180;-88
2023/05/21 18:28:57;;;;;;;8.30;6.65;;;25.10;80.00;;;;;;9504032;23;20156;-88
2023/05/21 18:32:43;;;;;;;7.07;6.05;;;25.00;78.80;;;;;;9478883;23;20231;-88
2023/05/21 18:36:37;;;;;;;8.27;6.25;;;24.90;79.20;;;;;;9476401;23;20176;-88
2023/05/21 18:40:25;;;;;;;8.80;6.28;;;24.90;79.90;;;;;;9479623;23;20155;-88
2023/05/21 18:44:10;;;;;;;11.23;6.90;;;24.80;79.80;;;;;;9489535;23;20184;-88
2023/05/21 18:47:56;;;;;;;16.92;10.48;;;24.80;79.70;;;;;;9477424;23;20167;-88
2023/05/21 18:51:42;;;;;;;11.73;9.07;;;24.70;80.00;;;;;;9477492;23;20183;-88
2023/05/21 18:55:27;;;;;;;7.45;6.40;;;24.70;80.50;;;;;;9502268;23;20172;-87
2023/05/21 18:59:13;;;;;;;11.85;5.82;;;24.60;80.60;;;;;;9501624;23;20179;-87
2023/05/21 19:02:59;;;;;;;7.55;6.65;;;24.50;81.30;;;;;;9476254;23;20503;-89
2023/05/21 19:06:45;;;;;;;7.38;6.07;;;24.50;81.70;;;;;;9502927;23;20190;-88
2023/05/21 19:10:31;;;;;;;10.45;5.93;;;24.40;82.10;;;;;;9478215;23;20219;-88
2023/05/21 19:14:19;;;;;;;8.82;6.60;;;24.40;82.30;;;;;;9475363;23;20203;-88
2023/05/21 19:18:04;;;;;;;10.18;7.00;;;24.30;82.50;;;;;;9501663;23;20255;-87